Floral Park, New York
Current Conditions -  °F | °C
As of 7:20 AM on Monday 24 Nov 2014 (Local Time) from KJFK Reporting Station
Light Rain Light Rain  
Wind Chill: 59°   Ceiling: 500
Heat Index: 59°   Visibility: 2mi
Dew Point: 55°   Wind: 21mph
Humidity: 88%   Direction: 180°S
Pressure: 29.74"   Gusts: NA
Location:  40.72°N, 73.7°W
Report Text: KJFK 241220Z 18018KT 2SM -RA BR OVC005 15/13 A2974 RMK AO2 SFC VIS 3 CIG 004V006 P0004 $
Loading
Personal Weather Stations






























Interactive Weather Map New forecast layout! Learn more

10-Day Weather Forecast

Advertisements
Track Severe Weather on mobile